sensor_id;sensor_type;location;lat;lon;timestamp;pressure;altitude;pressure_sealevel;temperature
69007;BMP180;56061;51.748;19.620;2023-11-21T09:30:15;98460.20;;;1.82
69007;BMP180;56061;51.748;19.620;2023-11-21T09:32:43;98460.80;;;2.10
69007;BMP180;56061;51.748;19.620;2023-11-21T09:35:12;98460.00;;;2.02
69007;BMP180;56061;51.748;19.620;2023-11-21T09:37:41;98460.60;;;1.92
69007;BMP180;56061;51.748;19.620;2023-11-21T09:40:11;98461.00;;;1.90
69007;BMP180;56061;51.748;19.620;2023-11-21T09:42:49;98466.20;;;1.76
69007;BMP180;56061;51.748;19.620;2023-11-21T09:47:46;98471.00;;;1.64
69007;BMP180;56061;51.748;19.620;2023-11-21T09:50:17;98471.00;;;1.60
69007;BMP180;56061;51.748;19.620;2023-11-21T09:55:22;98469.40;;;1.60
69007;BMP180;56061;51.748;19.620;2023-11-21T09:57:50;98471.40;;;1.60
69007;BMP180;56061;51.748;19.620;2023-11-21T10:02:44;98477.40;;;1.54
69007;BMP180;56061;51.748;19.620;2023-11-21T10:05:11;98475.20;;;1.50
69007;BMP180;56061;51.748;19.620;2023-11-21T10:07:40;98476.60;;;1.50
69007;BMP180;56061;51.748;19.620;2023-11-21T10:10:09;98474.80;;;1.42
69007;BMP180;56061;51.748;19.620;2023-11-21T10:12:36;98479.00;;;1.44
69007;BMP180;56061;51.748;19.620;2023-11-21T10:15:08;98478.00;;;1.42
69007;BMP180;56061;51.748;19.620;2023-11-21T10:17:40;98481.80;;;1.46
69007;BMP180;56061;51.748;19.620;2023-11-21T10:20:14;98483.00;;;1.46
69007;BMP180;56061;51.748;19.620;2023-11-21T10:22:42;98485.80;;;1.44
69007;BMP180;56061;51.748;19.620;2023-11-21T10:25:10;98482.60;;;1.40
69007;BMP180;56061;51.748;19.620;2023-11-21T10:27:37;98487.80;;;1.34
69007;BMP180;56061;51.748;19.620;2023-11-21T10:30:09;98485.80;;;1.30
69007;BMP180;56061;51.748;19.620;2023-11-21T10:32:39;98485.20;;;1.30
69007;BMP180;56061;51.748;19.620;2023-11-21T10:35:08;98481.80;;;1.30
69007;BMP180;56061;51.748;19.620;2023-11-21T10:37:41;98487.80;;;1.30
69007;BMP180;56061;51.748;19.620;2023-11-21T10:40:11;98490.20;;;1.40
69007;BMP180;56061;51.748;19.620;2023-11-21T10:42:40;98488.20;;;1.40
69007;BMP180;56061;51.748;19.620;2023-11-21T10:45:08;98482.40;;;1.40
69007;BMP180;56061;51.748;19.620;2023-11-21T10:47:41;98479.00;;;1.40
69007;BMP180;56061;51.748;19.620;2023-11-21T10:50:08;98484.20;;;1.40
69007;BMP180;56061;51.748;19.620;2023-11-21T10:52:42;98489.40;;;1.40
69007;BMP180;56061;51.748;19.620;2023-11-21T10:57:49;98500.00;;;1.30
69007;BMP180;56061;51.748;19.620;2023-11-21T11:02:53;98510.20;;;1.20
69007;BMP180;56061;51.748;19.620;2023-11-21T11:05:29;98511.60;;;1.18
69007;BMP180;56061;51.748;19.620;2023-11-21T11:08:08;98512.40;;;1.10
69007;BMP180;56061;51.748;19.620;2023-11-21T11:10:38;98515.80;;;1.10
69007;BMP180;56061;51.748;19.620;2023-11-21T11:13:07;98516.80;;;1.10
69007;BMP180;56061;51.748;19.620;2023-11-21T11:15:33;98515.80;;;1.00
69007;BMP180;56061;51.748;19.620;2023-11-21T11:18:02;98515.80;;;0.98
69007;BMP180;56061;51.748;19.620;2023-11-21T11:20:36;98517.20;;;0.90
69007;BMP180;56061;51.748;19.620;2023-11-21T11:31:54;98523.40;;;0.60
69007;BMP180;56061;51.748;19.620;2023-11-21T11:34:30;98526.20;;;0.50
69007;BMP180;56061;51.748;19.620;2023-11-21T11:37:02;98527.80;;;0.50
69007;BMP180;56061;51.748;19.620;2023-11-21T11:42:02;98529.00;;;0.50
69007;BMP180;56061;51.748;19.620;2023-11-21T11:44:51;98536.80;;;0.48
69007;BMP180;56061;51.748;19.620;2023-11-21T11:47:28;98541.20;;;0.40
69007;BMP180;56061;51.748;19.620;2023-11-21T11:50:07;98538.80;;;0.40
69007;BMP180;56061;51.748;19.620;2023-11-21T11:57:54;98552.60;;;0.30
69007;BMP180;56061;51.748;19.620;2023-11-21T12:03:01;98549.20;;;0.30
69007;BMP180;56061;51.748;19.620;2023-11-21T12:05:33;98550.40;;;0.34
69007;BMP180;56061;51.748;19.620;2023-11-21T12:08:07;98552.40;;;0.40
69007;BMP180;56061;51.748;19.620;2023-11-21T12:10:38;98549.60;;;0.40
69007;BMP180;56061;51.748;19.620;2023-11-21T12:13:09;98557.80;;;0.40
69007;BMP180;56061;51.748;19.620;2023-11-21T12:15:37;98557.20;;;0.40
69007;BMP180;56061;51.748;19.620;2023-11-21T12:18:06;98554.20;;;0.44
69007;BMP180;56061;51.748;19.620;2023-11-21T12:20:34;98564.20;;;0.46
69007;BMP180;56061;51.748;19.620;2023-11-21T12:23:06;98568.20;;;0.40
69007;BMP180;56061;51.748;19.620;2023-11-21T12:25:36;98569.60;;;0.40
69007;BMP180;56061;51.748;19.620;2023-11-21T12:28:03;98566.00;;;0.40
69007;BMP180;56061;51.748;19.620;2023-11-21T12:30:33;98563.00;;;0.40
69007;BMP180;56061;51.748;19.620;2023-11-21T12:33:03;98566.80;;;0.40
69007;BMP180;56061;51.748;19.620;2023-11-21T12:35:34;98561.80;;;0.36
69007;BMP180;56061;51.748;19.620;2023-11-21T12:38:03;98562.20;;;0.30
69007;BMP180;56061;51.748;19.620;2023-11-21T12:40:32;98562.20;;;0.30
69007;BMP180;56061;51.748;19.620;2023-11-21T12:43:00;98569.80;;;0.30
69007;BMP180;56061;51.748;19.620;2023-11-21T12:45:30;98568.20;;;0.30
69007;BMP180;56061;51.748;19.620;2023-11-21T12:48:04;98571.80;;;0.30
69007;BMP180;56061;51.748;19.620;2023-11-21T12:50:36;98569.80;;;0.30
69007;BMP180;56061;51.748;19.620;2023-11-21T12:55:39;98572.80;;;0.32
69007;BMP180;56061;51.748;19.620;2023-11-21T12:58:08;98568.80;;;0.40
69007;BMP180;56061;51.748;19.620;2023-11-21T13:00:42;98570.20;;;0.42
69007;BMP180;56061;51.748;19.620;2023-11-21T13:03:12;98577.80;;;0.50
69007;BMP180;56061;51.748;19.620;2023-11-21T13:05:45;98578.40;;;0.50
69007;BMP180;56061;51.748;19.620;2023-11-21T13:08:15;98580.20;;;0.50
69007;BMP180;56061;51.748;19.620;2023-11-21T13:10:49;98584.80;;;0.50
69007;BMP180;56061;51.748;19.620;2023-11-21T13:13:16;98591.40;;;0.50
69007;BMP180;56061;51.748;19.620;2023-11-21T13:16:00;98601.60;;;0.50
69007;BMP180;56061;51.748;19.620;2023-11-21T13:18:35;98617.40;;;0.40
69007;BMP180;56061;51.748;19.620;2023-11-21T13:21:05;98623.20;;;0.40
69007;BMP180;56061;51.748;19.620;2023-11-21T13:23:41;98628.60;;;0.38
69007;BMP180;56061;51.748;19.620;2023-11-21T13:26:10;98632.20;;;0.30
69007;BMP180;56061;51.748;19.620;2023-11-21T13:28:38;98637.20;;;0.30
69007;BMP180;56061;51.748;19.620;2023-11-21T13:31:07;98639.40;;;0.30
69007;BMP180;56061;51.748;19.620;2023-11-21T13:33:43;98641.80;;;0.26
69007;BMP180;56061;51.748;19.620;2023-11-21T13:36:16;98643.40;;;0.20
69007;BMP180;56061;51.748;19.620;2023-11-21T13:38:43;98647.60;;;0.20
69007;BMP180;56061;51.748;19.620;2023-11-21T13:41:12;98645.60;;;0.18
69007;BMP180;56061;51.748;19.620;2023-11-21T13:43:41;98647.00;;;0.10
69007;BMP180;56061;51.748;19.620;2023-11-21T13:46:11;98651.20;;;0.10
69007;BMP180;56061;51.748;19.620;2023-11-21T13:48:43;98655.20;;;0.10
69007;BMP180;56061;51.748;19.620;2023-11-21T13:51:18;98659.00;;;0.10
69007;BMP180;56061;51.748;19.620;2023-11-21T13:53:45;98669.40;;;0.10
69007;BMP180;56061;51.748;19.620;2023-11-21T13:56:18;98673.00;;;0.10
69007;BMP180;56061;51.748;19.620;2023-11-21T13:58:45;98676.80;;;0.14
69007;BMP180;56061;51.748;19.620;2023-11-21T14:01:21;98685.20;;;0.10
69007;BMP180;56061;51.748;19.620;2023-11-21T14:03:58;98686.40;;;0.04
69007;BMP180;56061;51.748;19.620;2023-11-21T14:06:35;98693.00;;;0.00
69007;BMP180;56061;51.748;19.620;2023-11-21T14:11:57;98709.00;;;-0.10
69007;BMP180;56061;51.748;19.620;2023-11-21T14:14:26;98711.20;;;-0.10
69007;BMP180;56061;51.748;19.620;2023-11-21T14:16:56;98710.80;;;-0.12
69007;BMP180;56061;51.748;19.620;2023-11-21T14:19:25;98720.60;;;-0.20
69007;BMP180;56061;51.748;19.620;2023-11-21T14:21:58;98723.80;;;-0.20
69007;BMP180;56061;51.748;19.620;2023-11-21T14:24:25;98728.00;;;-0.20
69007;BMP180;56061;51.748;19.620;2023-11-21T14:26:52;98732.60;;;-0.20
69007;BMP180;56061;51.748;19.620;2023-11-21T14:29:20;98732.00;;;-0.20
69007;BMP180;56061;51.748;19.620;2023-11-21T14:31:47;98739.60;;;-0.20
69007;BMP180;56061;51.748;19.620;2023-11-21T14:34:15;98741.80;;;-0.20
69007;BMP180;56061;51.748;19.620;2023-11-21T14:36:43;98743.20;;;-0.20
69007;BMP180;56061;51.748;19.620;2023-11-21T14:39:11;98749.00;;;-0.20
69007;BMP180;56061;51.748;19.620;2023-11-21T14:41:45;98749.40;;;-0.22
69007;BMP180;56061;51.748;19.620;2023-11-21T14:44:12;98753.00;;;-0.30
69007;BMP180;56061;51.748;19.620;2023-11-21T14:46:40;98747.80;;;-0.30
69007;BMP180;56061;51.748;19.620;2023-11-21T14:49:10;98752.20;;;-0.30
69007;BMP180;56061;51.748;19.620;2023-11-21T14:51:52;98749.60;;;-0.30
69007;BMP180;56061;51.748;19.620;2023-11-21T14:54:34;98752.60;;;-0.32
69007;BMP180;56061;51.748;19.620;2023-11-21T14:57:13;98745.80;;;-0.40
69007;BMP180;56061;51.748;19.620;2023-11-21T15:02:12;98756.00;;;-0.40
69007;BMP180;56061;51.748;19.620;2023-11-21T15:04:42;98756.20;;;-0.40
69007;BMP180;56061;51.748;19.620;2023-11-21T15:07:11;98761.00;;;-0.44
69007;BMP180;56061;51.748;19.620;2023-11-21T15:09:38;98766.80;;;-0.50
69007;BMP180;56061;51.748;19.620;2023-11-21T15:12:09;98765.40;;;-0.50
69007;BMP180;56061;51.748;19.620;2023-11-21T15:14:44;98764.00;;;-0.56
69007;BMP180;56061;51.748;19.620;2023-11-21T15:17:14;98766.60;;;-0.60
69007;BMP180;56061;51.748;19.620;2023-11-21T15:19:48;98771.60;;;-0.60
69007;BMP180;56061;51.748;19.620;2023-11-21T15:22:15;98777.60;;;-0.60
69007;BMP180;56061;51.748;19.620;2023-11-21T15:24:45;98785.40;;;-0.60
69007;BMP180;56061;51.748;19.620;2023-11-21T15:27:15;98786.00;;;-0.60
69007;BMP180;56061;51.748;19.620;2023-11-21T15:29:43;98786.20;;;-0.60
69007;BMP180;56061;51.748;19.620;2023-11-21T15:32:11;98787.80;;;-0.66
69007;BMP180;56061;51.748;19.620;2023-11-21T15:34:38;98792.00;;;-0.70
69007;BMP180;56061;51.748;19.620;2023-11-21T15:37:08;98797.60;;;-0.70
69007;BMP180;56061;51.748;19.620;2023-11-21T15:39:41;98797.40;;;-0.70
69007;BMP180;56061;51.748;19.620;2023-11-21T15:42:08;98803.20;;;-0.70
69007;BMP180;56061;51.748;19.620;2023-11-21T15:44:36;98799.40;;;-0.78
69007;BMP180;56061;51.748;19.620;2023-11-21T15:47:04;98799.40;;;-0.80
69007;BMP180;56061;51.748;19.620;2023-11-21T15:49:33;98804.20;;;-0.80
69007;BMP180;56061;51.748;19.620;2023-11-21T15:52:05;98802.60;;;-0.80
69007;BMP180;56061;51.748;19.620;2023-11-21T15:54:34;98808.40;;;-0.80
69007;BMP180;56061;51.748;19.620;2023-11-21T15:57:03;98817.20;;;-0.72
69007;BMP180;56061;51.748;19.620;2023-11-21T15:59:31;98820.20;;;-0.70
69007;BMP180;56061;51.748;19.620;2023-11-21T16:02:01;98827.40;;;-0.70
69007;BMP180;56061;51.748;19.620;2023-11-21T16:04:32;98829.60;;;-0.70
69007;BMP180;56061;51.748;19.620;2023-11-21T16:06:59;98831.00;;;-0.70
69007;BMP180;56061;51.748;19.620;2023-11-21T16:09:27;98833.20;;;-0.70
69007;BMP180;56061;51.748;19.620;2023-11-21T16:11:54;98841.80;;;-0.70
69007;BMP180;56061;51.748;19.620;2023-11-21T16:17:02;98850.40;;;-0.80
69007;BMP180;56061;51.748;19.620;2023-11-21T16:19:30;98857.40;;;-0.80
69007;BMP180;56061;51.748;19.620;2023-11-21T16:22:13;98866.60;;;-0.72
69007;BMP180;56061;51.748;19.620;2023-11-21T16:24:39;98867.00;;;-0.70
69007;BMP180;56061;51.748;19.620;2023-11-21T16:27:06;98871.80;;;-0.70
69007;BMP180;56061;51.748;19.620;2023-11-21T16:29:37;98872.20;;;-0.70
69007;BMP180;56061;51.748;19.620;2023-11-21T16:32:05;98870.60;;;-0.60
69007;BMP180;56061;51.748;19.620;2023-11-21T16:34:35;98873.80;;;-0.52
69007;BMP180;56061;51.748;19.620;2023-11-21T16:37:02;98879.20;;;-0.50
69007;BMP180;56061;51.748;19.620;2023-11-21T16:39:30;98880.60;;;-0.42
69007;BMP180;56061;51.748;19.620;2023-11-21T16:41:57;98879.00;;;-0.40
69007;BMP180;56061;51.748;19.620;2023-11-21T16:44:23;98881.40;;;-0.40
69007;BMP180;56061;51.748;19.620;2023-11-21T16:46:51;98887.00;;;-0.30
69007;BMP180;56061;51.748;19.620;2023-11-21T16:49:23;98883.80;;;-0.30
69007;BMP180;56061;51.748;19.620;2023-11-21T16:51:51;98889.20;;;-0.30
69007;BMP180;56061;51.748;19.620;2023-11-21T16:54:19;98890.20;;;-0.30
69007;BMP180;56061;51.748;19.620;2023-11-21T16:56:46;98899.20;;;-0.20
69007;BMP180;56061;51.748;19.620;2023-11-21T16:59:14;98903.60;;;-0.20
69007;BMP180;56061;51.748;19.620;2023-11-21T17:01:42;98903.80;;;-0.20
69007;BMP180;56061;51.748;19.620;2023-11-21T17:04:14;98907.80;;;-0.20
69007;BMP180;56061;51.748;19.620;2023-11-21T17:06:42;98911.40;;;-0.20
69007;BMP180;56061;51.748;19.620;2023-11-21T17:09:11;98912.20;;;-0.20
69007;BMP180;56061;51.748;19.620;2023-11-21T17:11:48;98918.60;;;-0.20
69007;BMP180;56061;51.748;19.620;2023-11-21T17:14:15;98916.00;;;-0.20
69007;BMP180;56061;51.748;19.620;2023-11-21T17:16:43;98921.60;;;-0.20
69007;BMP180;56061;51.748;19.620;2023-11-21T17:19:11;98917.40;;;-0.20
69007;BMP180;56061;51.748;19.620;2023-11-21T17:21:37;98919.60;;;-0.20
69007;BMP180;56061;51.748;19.620;2023-11-21T17:24:04;98920.40;;;-0.18
69007;BMP180;56061;51.748;19.620;2023-11-21T17:26:31;98926.00;;;-0.10
69007;BMP180;56061;51.748;19.620;2023-11-21T17:28:58;98923.40;;;-0.18
69007;BMP180;56061;51.748;19.620;2023-11-21T17:31:25;98926.00;;;-0.20
69007;BMP180;56061;51.748;19.620;2023-11-21T17:33:52;98924.00;;;-0.20
69007;BMP180;56061;51.748;19.620;2023-11-21T17:36:21;98931.20;;;-0.30
69007;BMP180;56061;51.748;19.620;2023-11-21T17:38:48;98935.80;;;-0.30
69007;BMP180;56061;51.748;19.620;2023-11-21T17:41:20;98937.40;;;-0.30
69007;BMP180;56061;51.748;19.620;2023-11-21T17:43:48;98939.40;;;-0.30
69007;BMP180;56061;51.748;19.620;2023-11-21T17:46:22;98945.40;;;-0.30
69007;BMP180;56061;51.748;19.620;2023-11-21T17:48:50;98953.60;;;-0.30
69007;BMP180;56061;51.748;19.620;2023-11-21T17:51:20;98954.00;;;-0.30
69007;BMP180;56061;51.748;19.620;2023-11-21T17:53:47;98959.40;;;-0.40
69007;BMP180;56061;51.748;19.620;2023-11-21T17:56:17;98958.60;;;-0.40
69007;BMP180;56061;51.748;19.620;2023-11-21T17:58:45;98963.00;;;-0.40
69007;BMP180;56061;51.748;19.620;2023-11-21T18:01:12;98963.60;;;-0.40
69007;BMP180;56061;51.748;19.620;2023-11-21T18:03:39;98965.40;;;-0.40
69007;BMP180;56061;51.748;19.620;2023-11-21T18:06:06;98970.20;;;-0.40
69007;BMP180;56061;51.748;19.620;2023-11-21T18:08:33;98958.20;;;-0.30
69007;BMP180;56061;51.748;19.620;2023-11-21T18:11:01;98966.00;;;-0.30
69007;BMP180;56061;51.748;19.620;2023-11-21T18:13:32;98968.60;;;-0.26
69007;BMP180;56061;51.748;19.620;2023-11-21T18:15:58;98975.40;;;-0.20
69007;BMP180;56061;51.748;19.620;2023-11-21T18:18:25;98978.80;;;-0.24
69007;BMP180;56061;51.748;19.620;2023-11-21T18:20:52;98979.60;;;-0.30
69007;BMP180;56061;51.748;19.620;2023-11-21T18:23:19;98983.80;;;-0.30
69007;BMP180;56061;51.748;19.620;2023-11-21T18:25:46;98983.00;;;-0.36
69007;BMP180;56061;51.748;19.620;2023-11-21T18:28:12;98984.40;;;-0.40
69007;BMP180;56061;51.748;19.620;2023-11-21T18:30:40;98989.60;;;-0.40
69007;BMP180;56061;51.748;19.620;2023-11-21T18:33:08;98999.60;;;-0.38
69007;BMP180;56061;51.748;19.620;2023-11-21T18:35:36;98995.00;;;-0.30
69007;BMP180;56061;51.748;19.620;2023-11-21T18:38:03;98996.60;;;-0.34
69007;BMP180;56061;51.748;19.620;2023-11-21T18:40:30;99000.80;;;-0.40
69007;BMP180;56061;51.748;19.620;2023-11-21T18:42:57;99003.60;;;-0.40
69007;BMP180;56061;51.748;19.620;2023-11-21T18:45:25;99003.20;;;-0.40
69007;BMP180;56061;51.748;19.620;2023-11-21T18:47:51;99003.60;;;-0.40
69007;BMP180;56061;51.748;19.620;2023-11-21T18:50:18;99011.60;;;-0.40
69007;BMP180;56061;51.748;19.620;2023-11-21T18:52:47;99014.00;;;-0.40
69007;BMP180;56061;51.748;19.620;2023-11-21T18:55:16;99019.80;;;-0.40
69007;BMP180;56061;51.748;19.620;2023-11-21T18:57:42;99023.20;;;-0.40
69007;BMP180;56061;51.748;19.620;2023-11-21T19:00:10;99023.80;;;-0.40
69007;BMP180;56061;51.748;19.620;2023-11-21T19:02:38;99028.40;;;-0.38
69007;BMP180;56061;51.748;19.620;2023-11-21T19:05:06;99030.80;;;-0.34
69007;BMP180;56061;51.748;19.620;2023-11-21T19:07:34;99031.20;;;-0.36
69007;BMP180;56061;51.748;19.620;2023-11-21T19:10:06;99031.80;;;-0.38
69007;BMP180;56061;51.748;19.620;2023-11-21T19:12:36;99036.20;;;-0.40
69007;BMP180;56061;51.748;19.620;2023-11-21T19:15:07;99045.20;;;-0.40
69007;BMP180;56061;51.748;19.620;2023-11-21T19:17:40;99044.20;;;-0.50
69007;BMP180;56061;51.748;19.620;2023-11-21T19:20:07;99053.00;;;-0.50
69007;BMP180;56061;51.748;19.620;2023-11-21T19:22:35;99062.60;;;-0.54
69007;BMP180;56061;51.748;19.620;2023-11-21T19:25:04;99061.20;;;-0.60
69007;BMP180;56061;51.748;19.620;2023-11-21T19:27:31;99065.40;;;-0.60
69007;BMP180;56061;51.748;19.620;2023-11-21T19:30:02;99066.40;;;-0.60
69007;BMP180;56061;51.748;19.620;2023-11-21T19:32:29;99068.60;;;-0.60
69007;BMP180;56061;51.748;19.620;2023-11-21T19:34:56;99073.60;;;-0.60
69007;BMP180;56061;51.748;19.620;2023-11-21T19:37:23;99080.40;;;-0.60
69007;BMP180;56061;51.748;19.620;2023-11-21T19:39:50;99082.40;;;-0.60
69007;BMP180;56061;51.748;19.620;2023-11-21T19:42:17;99083.60;;;-0.52
69007;BMP180;56061;51.748;19.620;2023-11-21T19:44:44;99087.20;;;-0.50
69007;BMP180;56061;51.748;19.620;2023-11-21T19:47:10;99090.40;;;-0.50
69007;BMP180;56061;51.748;19.620;2023-11-21T19:49:37;99100.60;;;-0.50
69007;BMP180;56061;51.748;19.620;2023-11-21T19:52:04;99105.00;;;-0.56
69007;BMP180;56061;51.748;19.620;2023-11-21T19:54:33;99104.20;;;-0.60
69007;BMP180;56061;51.748;19.620;2023-11-21T19:57:01;99106.80;;;-0.70
69007;BMP180;56061;51.748;19.620;2023-11-21T19:59:31;99113.80;;;-0.70
69007;BMP180;56061;51.748;19.620;2023-11-21T20:01:59;99117.80;;;-0.70
69007;BMP180;56061;51.748;19.620;2023-11-21T20:04:26;99119.80;;;-0.70
69007;BMP180;56061;51.748;19.620;2023-11-21T20:06:53;99125.60;;;-0.70
69007;BMP180;56061;51.748;19.620;2023-11-21T20:09:23;99131.60;;;-0.70
69007;BMP180;56061;51.748;19.620;2023-11-21T20:11:50;99136.40;;;-0.70
69007;BMP180;56061;51.748;19.620;2023-11-21T20:14:18;99138.80;;;-0.70
69007;BMP180;56061;51.748;19.620;2023-11-21T20:16:45;99142.00;;;-0.70
69007;BMP180;56061;51.748;19.620;2023-11-21T20:19:14;99139.40;;;-0.70
69007;BMP180;56061;51.748;19.620;2023-11-21T20:21:41;99143.40;;;-0.70
69007;BMP180;56061;51.748;19.620;2023-11-21T20:24:09;99149.00;;;-0.70
69007;BMP180;56061;51.748;19.620;2023-11-21T20:26:38;99152.40;;;-0.70
69007;BMP180;56061;51.748;19.620;2023-11-21T20:29:09;99154.20;;;-0.70
69007;BMP180;56061;51.748;19.620;2023-11-21T20:31:36;99155.80;;;-0.70
69007;BMP180;56061;51.748;19.620;2023-11-21T20:34:03;99158.40;;;-0.70
69007;BMP180;56061;51.748;19.620;2023-11-21T20:36:31;99163.40;;;-0.70
69007;BMP180;56061;51.748;19.620;2023-11-21T20:38:58;99170.80;;;-0.70
69007;BMP180;56061;51.748;19.620;2023-11-21T20:41:25;99172.00;;;-0.70
69007;BMP180;56061;51.748;19.620;2023-11-21T20:43:54;99176.80;;;-0.68
69007;BMP180;56061;51.748;19.620;2023-11-21T20:46:22;99182.60;;;-0.70
69007;BMP180;56061;51.748;19.620;2023-11-21T20:48:49;99175.60;;;-0.70
69007;BMP180;56061;51.748;19.620;2023-11-21T20:51:20;99185.00;;;-0.70
69007;BMP180;56061;51.748;19.620;2023-11-21T20:53:48;99193.80;;;-0.70
69007;BMP180;56061;51.748;19.620;2023-11-21T20:56:14;99199.80;;;-0.70
69007;BMP180;56061;51.748;19.620;2023-11-21T21:01:08;99198.40;;;-0.70
69007;BMP180;56061;51.748;19.620;2023-11-21T21:03:36;99197.20;;;-0.70
69007;BMP180;56061;51.748;19.620;2023-11-21T21:06:03;99196.20;;;-0.70
69007;BMP180;56061;51.748;19.620;2023-11-21T21:08:30;99201.00;;;-0.70
69007;BMP180;56061;51.748;19.620;2023-11-21T21:10:56;99206.60;;;-0.70
69007;BMP180;56061;51.748;19.620;2023-11-21T21:13:24;99212.40;;;-0.70
69007;BMP180;56061;51.748;19.620;2023-11-21T21:15:51;99222.20;;;-0.70
69007;BMP180;56061;51.748;19.620;2023-11-21T21:18:18;99229.60;;;-0.70
69007;BMP180;56061;51.748;19.620;2023-11-21T21:20:44;99232.80;;;-0.70
69007;BMP180;56061;51.748;19.620;2023-11-21T21:23:11;99233.60;;;-0.70
69007;BMP180;56061;51.748;19.620;2023-11-21T21:25:40;99239.60;;;-0.70
69007;BMP180;56061;51.748;19.620;2023-11-21T21:28:06;99243.60;;;-0.72
69007;BMP180;56061;51.748;19.620;2023-11-21T21:30:33;99246.00;;;-0.80
69007;BMP180;56061;51.748;19.620;2023-11-21T21:33:00;99251.00;;;-0.80
69007;BMP180;56061;51.748;19.620;2023-11-21T21:35:27;99250.00;;;-0.80
69007;BMP180;56061;51.748;19.620;2023-11-21T21:37:56;99254.00;;;-0.80
69007;BMP180;56061;51.748;19.620;2023-11-21T21:40:26;99256.60;;;-0.80
69007;BMP180;56061;51.748;19.620;2023-11-21T21:42:56;99264.00;;;-0.80
69007;BMP180;56061;51.748;19.620;2023-11-21T21:45:23;99267.00;;;-0.80
69007;BMP180;56061;51.748;19.620;2023-11-21T21:47:52;99276.60;;;-0.80
69007;BMP180;56061;51.748;19.620;2023-11-21T21:50:19;99278.80;;;-0.80
69007;BMP180;56061;51.748;19.620;2023-11-21T21:52:46;99280.00;;;-0.80
69007;BMP180;56061;51.748;19.620;2023-11-21T21:55:13;99280.80;;;-0.80
69007;BMP180;56061;51.748;19.620;2023-11-21T21:57:41;99283.40;;;-0.80
69007;BMP180;56061;51.748;19.620;2023-11-21T22:00:07;99285.00;;;-0.80
69007;BMP180;56061;51.748;19.620;2023-11-21T22:02:35;99294.20;;;-0.80
69007;BMP180;56061;51.748;19.620;2023-11-21T22:05:02;99298.80;;;-0.84
69007;BMP180;56061;51.748;19.620;2023-11-21T22:07:28;99301.80;;;-0.90
69007;BMP180;56061;51.748;19.620;2023-11-21T22:09:55;99308.60;;;-0.80
69007;BMP180;56061;51.748;19.620;2023-11-21T22:12:22;99306.00;;;-0.80
69007;BMP180;56061;51.748;19.620;2023-11-21T22:14:48;99301.20;;;-0.80
69007;BMP180;56061;51.748;19.620;2023-11-21T22:17:15;99306.40;;;-0.80
69007;BMP180;56061;51.748;19.620;2023-11-21T22:19:42;99310.20;;;-0.80
69007;BMP180;56061;51.748;19.620;2023-11-21T22:22:09;99310.00;;;-0.80
69007;BMP180;56061;51.748;19.620;2023-11-21T22:24:37;99308.00;;;-0.90
69007;BMP180;56061;51.748;19.620;2023-11-21T22:27:04;99317.00;;;-0.90
69007;BMP180;56061;51.748;19.620;2023-11-21T22:29:32;99322.00;;;-0.90
69007;BMP180;56061;51.748;19.620;2023-11-21T22:31:58;99324.60;;;-0.90
69007;BMP180;56061;51.748;19.620;2023-11-21T22:34:25;99325.60;;;-1.00
69007;BMP180;56061;51.748;19.620;2023-11-21T22:36:52;99325.20;;;-1.00
69007;BMP180;56061;51.748;19.620;2023-11-21T22:39:20;99323.40;;;-1.10
69007;BMP180;56061;51.748;19.620;2023-11-21T22:41:46;99323.00;;;-1.10
69007;BMP180;56061;51.748;19.620;2023-11-21T22:44:14;99325.40;;;-1.10
69007;BMP180;56061;51.748;19.620;2023-11-21T22:49:11;99325.60;;;-1.10
69007;BMP180;56061;51.748;19.620;2023-11-21T22:51:40;99337.40;;;-1.06
69007;BMP180;56061;51.748;19.620;2023-11-21T22:54:07;99339.80;;;-1.10
69007;BMP180;56061;51.748;19.620;2023-11-21T22:56:34;99347.80;;;-1.10
69007;BMP180;56061;51.748;19.620;2023-11-21T22:59:02;99354.00;;;-1.10
69007;BMP180;56061;51.748;19.620;2023-11-21T23:01:29;99359.00;;;-1.12
69007;BMP180;56061;51.748;19.620;2023-11-21T23:03:56;99355.80;;;-1.20
69007;BMP180;56061;51.748;19.620;2023-11-21T23:06:23;99356.20;;;-1.20
69007;BMP180;56061;51.748;19.620;2023-11-21T23:08:50;99360.00;;;-1.20
69007;BMP180;56061;51.748;19.620;2023-11-21T23:11:17;99360.00;;;-1.14
69007;BMP180;56061;51.748;19.620;2023-11-21T23:13:44;99360.80;;;-1.20
69007;BMP180;56061;51.748;19.620;2023-11-21T23:16:10;99359.60;;;-1.20
69007;BMP180;56061;51.748;19.620;2023-11-21T23:18:37;99365.00;;;-1.20
69007;BMP180;56061;51.748;19.620;2023-11-21T23:21:04;99366.00;;;-1.20
69007;BMP180;56061;51.748;19.620;2023-11-21T23:23:33;99364.00;;;-1.20
69007;BMP180;56061;51.748;19.620;2023-11-21T23:25:59;99372.40;;;-1.20
69007;BMP180;56061;51.748;19.620;2023-11-21T23:28:27;99371.00;;;-1.26
69007;BMP180;56061;51.748;19.620;2023-11-21T23:30:54;99368.00;;;-1.30
69007;BMP180;56061;51.748;19.620;2023-11-21T23:33:21;99374.80;;;-1.30
69007;BMP180;56061;51.748;19.620;2023-11-21T23:35:48;99374.60;;;-1.26
69007;BMP180;56061;51.748;19.620;2023-11-21T23:38:14;99374.00;;;-1.28
69007;BMP180;56061;51.748;19.620;2023-11-21T23:40:42;99380.20;;;-1.30
69007;BMP180;56061;51.748;19.620;2023-11-21T23:43:13;99382.80;;;-1.30
69007;BMP180;56061;51.748;19.620;2023-11-21T23:45:40;99386.20;;;-1.38
69007;BMP180;56061;51.748;19.620;2023-11-21T23:48:07;99382.80;;;-1.40
69007;BMP180;56061;51.748;19.620;2023-11-21T23:50:34;99381.40;;;-1.40
69007;BMP180;56061;51.748;19.620;2023-11-21T23:53:00;99383.20;;;-1.40
69007;BMP180;56061;51.748;19.620;2023-11-21T23:55:28;99381.40;;;-1.44
69007;BMP180;56061;51.748;19.620;2023-11-21T23:57:55;99379.80;;;-1.50
